sensor_id;sensor_type;location;lat;lon;timestamp;P1;durP1;ratioP1;P2;durP2;ratioP2
19095;SDS011;9680;52.520;13.332;2023-06-26T00:00:32;18.83;;;9.48;;
19095;SDS011;9680;52.520;13.332;2023-06-26T00:02:59;19.88;;;8.93;;
19095;SDS011;9680;52.520;13.332;2023-06-26T00:05:26;16.88;;;9.25;;
19095;SDS011;9680;52.520;13.332;2023-06-26T00:07:55;13.77;;;8.73;;
19095;SDS011;9680;52.520;13.332;2023-06-26T00:10:25;15.27;;;9.63;;
19095;SDS011;9680;52.520;13.332;2023-06-26T00:12:52;15.13;;;9.30;;
19095;SDS011;9680;52.520;13.332;2023-06-26T00:15:19;25.15;;;9.07;;
19095;SDS011;9680;52.520;13.332;2023-06-26T00:17:47;13.10;;;8.98;;
19095;SDS011;9680;52.520;13.332;2023-06-26T00:20:14;18.38;;;9.50;;
19095;SDS011;9680;52.520;13.332;2023-06-26T00:22:41;17.35;;;9.68;;
19095;SDS011;9680;52.520;13.332;2023-06-26T00:25:08;18.05;;;10.02;;
19095;SDS011;9680;52.520;13.332;2023-06-26T00:27:35;15.15;;;10.18;;
19095;SDS011;9680;52.520;13.332;2023-06-26T00:30:03;15.70;;;9.30;;
19095;SDS011;9680;52.520;13.332;2023-06-26T00:32:30;16.05;;;9.13;;
19095;SDS011;9680;52.520;13.332;2023-06-26T00:34:58;17.17;;;9.43;;
19095;SDS011;9680;52.520;13.332;2023-06-26T00:37:25;16.42;;;9.48;;
19095;SDS011;9680;52.520;13.332;2023-06-26T00:39:52;15.68;;;9.20;;
19095;SDS011;9680;52.520;13.332;2023-06-26T00:42:18;17.40;;;9.60;;
19095;SDS011;9680;52.520;13.332;2023-06-26T00:44:45;16.50;;;8.77;;
19095;SDS011;9680;52.520;13.332;2023-06-26T00:47:13;15.38;;;8.93;;
19095;SDS011;9680;52.520;13.332;2023-06-26T00:49:42;13.63;;;9.25;;
19095;SDS011;9680;52.520;13.332;2023-06-26T00:52:10;14.73;;;9.15;;
19095;SDS011;9680;52.520;13.332;2023-06-26T00:54:37;15.00;;;9.52;;
19095;SDS011;9680;52.520;13.332;2023-06-26T00:57:04;15.43;;;9.88;;
19095;SDS011;9680;52.520;13.332;2023-06-26T00:59:32;17.00;;;9.20;;
19095;SDS011;9680;52.520;13.332;2023-06-26T01:01:59;15.40;;;9.60;;
19095;SDS011;9680;52.520;13.332;2023-06-26T01:04:26;15.43;;;9.52;;
19095;SDS011;9680;52.520;13.332;2023-06-26T01:06:57;14.27;;;9.23;;
19095;SDS011;9680;52.520;13.332;2023-06-26T01:09:27;15.43;;;9.85;;
19095;SDS011;9680;52.520;13.332;2023-06-26T01:11:55;15.13;;;9.65;;
19095;SDS011;9680;52.520;13.332;2023-06-26T01:14:23;13.55;;;9.50;;
19095;SDS011;9680;52.520;13.332;2023-06-26T01:16:50;13.98;;;9.05;;
19095;SDS011;9680;52.520;13.332;2023-06-26T01:19:18;14.93;;;9.43;;
19095;SDS011;9680;52.520;13.332;2023-06-26T01:21:50;17.00;;;9.75;;
19095;SDS011;9680;52.520;13.332;2023-06-26T01:24:22;16.75;;;9.43;;
19095;SDS011;9680;52.520;13.332;2023-06-26T01:26:54;14.23;;;9.18;;
19095;SDS011;9680;52.520;13.332;2023-06-26T01:29:21;14.68;;;9.35;;
19095;SDS011;9680;52.520;13.332;2023-06-26T01:31:49;15.80;;;10.27;;
19095;SDS011;9680;52.520;13.332;2023-06-26T01:34:16;14.82;;;8.95;;
19095;SDS011;9680;52.520;13.332;2023-06-26T01:36:44;14.15;;;9.30;;
19095;SDS011;9680;52.520;13.332;2023-06-26T01:39:14;16.30;;;9.60;;
19095;SDS011;9680;52.520;13.332;2023-06-26T01:41:42;15.55;;;9.60;;
19095;SDS011;9680;52.520;13.332;2023-06-26T01:44:25;16.45;;;10.18;;
19095;SDS011;9680;52.520;13.332;2023-06-26T01:46:58;17.00;;;9.75;;
19095;SDS011;9680;52.520;13.332;2023-06-26T01:49:29;17.30;;;10.85;;
19095;SDS011;9680;52.520;13.332;2023-06-26T01:52:07;17.35;;;11.25;;
19095;SDS011;9680;52.520;13.332;2023-06-26T01:54:42;16.42;;;10.40;;
19095;SDS011;9680;52.520;13.332;2023-06-26T01:57:15;15.13;;;10.30;;
19095;SDS011;9680;52.520;13.332;2023-06-26T01:59:46;15.57;;;10.10;;
19095;SDS011;9680;52.520;13.332;2023-06-26T02:02:14;15.57;;;10.45;;
19095;SDS011;9680;52.520;13.332;2023-06-26T02:04:40;16.55;;;10.57;;
19095;SDS011;9680;52.520;13.332;2023-06-26T02:07:07;17.10;;;10.45;;
19095;SDS011;9680;52.520;13.332;2023-06-26T02:09:35;17.35;;;10.77;;
19095;SDS011;9680;52.520;13.332;2023-06-26T02:12:02;17.23;;;10.68;;
19095;SDS011;9680;52.520;13.332;2023-06-26T02:14:29;16.40;;;10.55;;
19095;SDS011;9680;52.520;13.332;2023-06-26T02:16:57;18.02;;;11.00;;
19095;SDS011;9680;52.520;13.332;2023-06-26T02:19:25;17.30;;;10.75;;
19095;SDS011;9680;52.520;13.332;2023-06-26T02:21:52;16.05;;;10.50;;
19095;SDS011;9680;52.520;13.332;2023-06-26T02:24:19;19.00;;;10.75;;
19095;SDS011;9680;52.520;13.332;2023-06-26T02:26:46;15.80;;;10.45;;
19095;SDS011;9680;52.520;13.332;2023-06-26T02:29:14;16.20;;;10.85;;
19095;SDS011;9680;52.520;13.332;2023-06-26T02:31:41;18.08;;;10.98;;
19095;SDS011;9680;52.520;13.332;2023-06-26T02:34:09;16.33;;;10.98;;
19095;SDS011;9680;52.520;13.332;2023-06-26T02:36:36;16.77;;;10.95;;
19095;SDS011;9680;52.520;13.332;2023-06-26T02:39:04;16.42;;;11.02;;
19095;SDS011;9680;52.520;13.332;2023-06-26T02:41:32;17.10;;;10.35;;
19095;SDS011;9680;52.520;13.332;2023-06-26T02:43:59;16.70;;;10.45;;
19095;SDS011;9680;52.520;13.332;2023-06-26T02:46:26;17.63;;;11.02;;
19095;SDS011;9680;52.520;13.332;2023-06-26T02:48:55;19.02;;;10.90;;
19095;SDS011;9680;52.520;13.332;2023-06-26T02:51:23;15.25;;;10.50;;
19095;SDS011;9680;52.520;13.332;2023-06-26T02:53:52;18.50;;;11.30;;
19095;SDS011;9680;52.520;13.332;2023-06-26T02:56:19;20.58;;;11.20;;
19095;SDS011;9680;52.520;13.332;2023-06-26T02:58:45;16.23;;;11.27;;
19095;SDS011;9680;52.520;13.332;2023-06-26T03:01:12;19.17;;;11.30;;
19095;SDS011;9680;52.520;13.332;2023-06-26T03:03:40;17.52;;;10.88;;
19095;SDS011;9680;52.520;13.332;2023-06-26T03:06:12;17.77;;;11.00;;
19095;SDS011;9680;52.520;13.332;2023-06-26T03:08:41;17.48;;;11.10;;
19095;SDS011;9680;52.520;13.332;2023-06-26T03:11:08;16.35;;;10.75;;
19095;SDS011;9680;52.520;13.332;2023-06-26T03:13:36;18.13;;;11.45;;
19095;SDS011;9680;52.520;13.332;2023-06-26T03:16:03;17.67;;;11.15;;
19095;SDS011;9680;52.520;13.332;2023-06-26T03:18:31;20.30;;;11.38;;
19095;SDS011;9680;52.520;13.332;2023-06-26T03:20:58;17.33;;;11.68;;
19095;SDS011;9680;52.520;13.332;2023-06-26T03:23:26;17.60;;;10.75;;
19095;SDS011;9680;52.520;13.332;2023-06-26T03:25:54;17.40;;;12.13;;
19095;SDS011;9680;52.520;13.332;2023-06-26T03:28:26;17.45;;;11.63;;
19095;SDS011;9680;52.520;13.332;2023-06-26T03:30:53;17.52;;;11.20;;
19095;SDS011;9680;52.520;13.332;2023-06-26T03:33:22;17.98;;;10.95;;
19095;SDS011;9680;52.520;13.332;2023-06-26T03:35:49;19.23;;;12.07;;
19095;SDS011;9680;52.520;13.332;2023-06-26T03:38:16;16.00;;;11.27;;
19095;SDS011;9680;52.520;13.332;2023-06-26T03:40:44;21.80;;;11.80;;
19095;SDS011;9680;52.520;13.332;2023-06-26T03:43:12;15.88;;;10.63;;
19095;SDS011;9680;52.520;13.332;2023-06-26T03:45:49;17.25;;;11.15;;
19095;SDS011;9680;52.520;13.332;2023-06-26T03:48:15;16.48;;;10.95;;
19095;SDS011;9680;52.520;13.332;2023-06-26T03:50:42;19.38;;;11.63;;
19095;SDS011;9680;52.520;13.332;2023-06-26T03:53:09;18.38;;;11.50;;
19095;SDS011;9680;52.520;13.332;2023-06-26T03:55:39;17.95;;;11.80;;
19095;SDS011;9680;52.520;13.332;2023-06-26T03:58:06;17.27;;;11.32;;
19095;SDS011;9680;52.520;13.332;2023-06-26T04:00:34;17.88;;;11.90;;
19095;SDS011;9680;52.520;13.332;2023-06-26T04:03:01;18.55;;;12.05;;
19095;SDS011;9680;52.520;13.332;2023-06-26T04:05:29;18.15;;;11.45;;
19095;SDS011;9680;52.520;13.332;2023-06-26T04:07:56;17.88;;;11.23;;
19095;SDS011;9680;52.520;13.332;2023-06-26T04:10:24;20.30;;;11.50;;
19095;SDS011;9680;52.520;13.332;2023-06-26T04:12:51;16.20;;;10.82;;
19095;SDS011;9680;52.520;13.332;2023-06-26T04:15:18;18.48;;;11.15;;
19095;SDS011;9680;52.520;13.332;2023-06-26T04:17:46;18.23;;;11.40;;
19095;SDS011;9680;52.520;13.332;2023-06-26T04:20:13;20.25;;;11.60;;
19095;SDS011;9680;52.520;13.332;2023-06-26T04:22:40;16.23;;;11.35;;
19095;SDS011;9680;52.520;13.332;2023-06-26T04:25:07;25.08;;;11.40;;
19095;SDS011;9680;52.520;13.332;2023-06-26T04:27:34;18.60;;;12.02;;
19095;SDS011;9680;52.520;13.332;2023-06-26T04:30:00;16.00;;;10.98;;
19095;SDS011;9680;52.520;13.332;2023-06-26T04:32:27;15.45;;;10.77;;
19095;SDS011;9680;52.520;13.332;2023-06-26T04:34:55;17.05;;;10.85;;
19095;SDS011;9680;52.520;13.332;2023-06-26T04:37:22;18.80;;;10.93;;
19095;SDS011;9680;52.520;13.332;2023-06-26T04:39:49;18.00;;;11.00;;
19095;SDS011;9680;52.520;13.332;2023-06-26T04:42:16;17.63;;;10.98;;
19095;SDS011;9680;52.520;13.332;2023-06-26T04:44:44;16.38;;;11.23;;
19095;SDS011;9680;52.520;13.332;2023-06-26T04:47:10;14.95;;;10.35;;
19095;SDS011;9680;52.520;13.332;2023-06-26T04:49:40;16.23;;;10.52;;
19095;SDS011;9680;52.520;13.332;2023-06-26T04:52:09;16.40;;;10.85;;
19095;SDS011;9680;52.520;13.332;2023-06-26T04:54:38;26.95;;;15.27;;
19095;SDS011;9680;52.520;13.332;2023-06-26T04:57:05;17.25;;;11.35;;
19095;SDS011;9680;52.520;13.332;2023-06-26T04:59:34;19.67;;;11.25;;
19095;SDS011;9680;52.520;13.332;2023-06-26T05:02:00;17.40;;;11.20;;
19095;SDS011;9680;52.520;13.332;2023-06-26T05:04:28;16.00;;;10.68;;
19095;SDS011;9680;52.520;13.332;2023-06-26T05:06:54;16.42;;;10.90;;
19095;SDS011;9680;52.520;13.332;2023-06-26T05:09:22;15.90;;;11.05;;
19095;SDS011;9680;52.520;13.332;2023-06-26T05:11:49;16.02;;;10.80;;
19095;SDS011;9680;52.520;13.332;2023-06-26T05:14:16;19.58;;;12.07;;
19095;SDS011;9680;52.520;13.332;2023-06-26T05:16:43;18.58;;;11.43;;
19095;SDS011;9680;52.520;13.332;2023-06-26T05:19:09;17.65;;;11.43;;
19095;SDS011;9680;52.520;13.332;2023-06-26T05:21:36;16.33;;;11.57;;
19095;SDS011;9680;52.520;13.332;2023-06-26T05:24:04;17.95;;;12.00;;
19095;SDS011;9680;52.520;13.332;2023-06-26T05:26:34;17.58;;;11.40;;
19095;SDS011;9680;52.520;13.332;2023-06-26T05:29:01;32.03;;;18.90;;
19095;SDS011;9680;52.520;13.332;2023-06-26T05:31:28;19.20;;;12.05;;
19095;SDS011;9680;52.520;13.332;2023-06-26T05:33:58;16.25;;;11.35;;
19095;SDS011;9680;52.520;13.332;2023-06-26T05:36:29;21.83;;;12.18;;
19095;SDS011;9680;52.520;13.332;2023-06-26T05:38:58;16.63;;;11.60;;
19095;SDS011;9680;52.520;13.332;2023-06-26T05:41:25;18.50;;;11.75;;
19095;SDS011;9680;52.520;13.332;2023-06-26T05:43:53;16.60;;;11.65;;
19095;SDS011;9680;52.520;13.332;2023-06-26T05:46:20;17.30;;;11.95;;
19095;SDS011;9680;52.520;13.332;2023-06-26T05:48:47;18.33;;;11.30;;
19095;SDS011;9680;52.520;13.332;2023-06-26T05:51:14;15.13;;;10.95;;
19095;SDS011;9680;52.520;13.332;2023-06-26T05:53:41;20.08;;;11.80;;
19095;SDS011;9680;52.520;13.332;2023-06-26T05:56:09;17.83;;;11.60;;
19095;SDS011;9680;52.520;13.332;2023-06-26T05:58:36;17.15;;;12.00;;
19095;SDS011;9680;52.520;13.332;2023-06-26T06:01:08;17.60;;;11.38;;
19095;SDS011;9680;52.520;13.332;2023-06-26T06:03:35;20.00;;;11.50;;
19095;SDS011;9680;52.520;13.332;2023-06-26T06:06:02;16.48;;;11.32;;
19095;SDS011;9680;52.520;13.332;2023-06-26T06:08:29;16.05;;;10.15;;
19095;SDS011;9680;52.520;13.332;2023-06-26T06:10:56;17.75;;;10.38;;
19095;SDS011;9680;52.520;13.332;2023-06-26T06:13:23;17.23;;;11.30;;
19095;SDS011;9680;52.520;13.332;2023-06-26T06:15:50;16.30;;;9.52;;
19095;SDS011;9680;52.520;13.332;2023-06-26T06:18:18;14.48;;;9.57;;
19095;SDS011;9680;52.520;13.332;2023-06-26T06:20:45;15.27;;;9.18;;
19095;SDS011;9680;52.520;13.332;2023-06-26T06:23:12;12.30;;;8.48;;
19095;SDS011;9680;52.520;13.332;2023-06-26T06:25:38;13.80;;;8.38;;
19095;SDS011;9680;52.520;13.332;2023-06-26T06:28:05;12.52;;;8.77;;
19095;SDS011;9680;52.520;13.332;2023-06-26T06:30:32;14.30;;;8.48;;
19095;SDS011;9680;52.520;13.332;2023-06-26T06:33:00;15.95;;;7.82;;
19095;SDS011;9680;52.520;13.332;2023-06-26T06:35:28;20.02;;;7.68;;
19095;SDS011;9680;52.520;13.332;2023-06-26T06:37:55;18.98;;;7.70;;
19095;SDS011;9680;52.520;13.332;2023-06-26T06:40:21;15.00;;;6.82;;
19095;SDS011;9680;52.520;13.332;2023-06-26T06:42:50;13.02;;;7.32;;
19095;SDS011;9680;52.520;13.332;2023-06-26T06:45:16;10.48;;;7.10;;
19095;SDS011;9680;52.520;13.332;2023-06-26T06:47:43;10.73;;;6.28;;
19095;SDS011;9680;52.520;13.332;2023-06-26T06:50:10;12.05;;;6.72;;
19095;SDS011;9680;52.520;13.332;2023-06-26T06:52:38;13.75;;;7.15;;
19095;SDS011;9680;52.520;13.332;2023-06-26T06:55:06;12.45;;;6.72;;
19095;SDS011;9680;52.520;13.332;2023-06-26T06:57:35;16.67;;;6.82;;
19095;SDS011;9680;52.520;13.332;2023-06-26T07:00:03;10.70;;;6.38;;
19095;SDS011;9680;52.520;13.332;2023-06-26T07:02:33;14.27;;;6.63;;
19095;SDS011;9680;52.520;13.332;2023-06-26T07:05:00;14.43;;;6.63;;
19095;SDS011;9680;52.520;13.332;2023-06-26T07:07:28;13.18;;;6.40;;
19095;SDS011;9680;52.520;13.332;2023-06-26T07:09:58;9.93;;;6.30;;
19095;SDS011;9680;52.520;13.332;2023-06-26T07:12:25;11.75;;;6.13;;
19095;SDS011;9680;52.520;13.332;2023-06-26T07:14:52;9.95;;;6.18;;
19095;SDS011;9680;52.520;13.332;2023-06-26T07:17:19;8.93;;;6.43;;
19095;SDS011;9680;52.520;13.332;2023-06-26T07:19:46;9.88;;;6.47;;
19095;SDS011;9680;52.520;13.332;2023-06-26T07:22:13;9.45;;;6.05;;
19095;SDS011;9680;52.520;13.332;2023-06-26T07:24:39;14.35;;;6.03;;
19095;SDS011;9680;52.520;13.332;2023-06-26T07:27:09;10.95;;;7.13;;
19095;SDS011;9680;52.520;13.332;2023-06-26T07:29:35;8.88;;;5.82;;
19095;SDS011;9680;52.520;13.332;2023-06-26T07:32:02;11.43;;;6.35;;
19095;SDS011;9680;52.520;13.332;2023-06-26T07:34:29;10.30;;;6.75;;
19095;SDS011;9680;52.520;13.332;2023-06-26T07:36:56;9.38;;;6.10;;
19095;SDS011;9680;52.520;13.332;2023-06-26T07:39:24;8.98;;;5.72;;
19095;SDS011;9680;52.520;13.332;2023-06-26T07:41:50;10.75;;;5.95;;
19095;SDS011;9680;52.520;13.332;2023-06-26T07:44:19;8.25;;;5.57;;
19095;SDS011;9680;52.520;13.332;2023-06-26T07:46:45;10.23;;;5.40;;
19095;SDS011;9680;52.520;13.332;2023-06-26T07:49:12;8.27;;;5.68;;
19095;SDS011;9680;52.520;13.332;2023-06-26T07:51:39;9.52;;;6.45;;
19095;SDS011;9680;52.520;13.332;2023-06-26T07:54:06;7.57;;;5.40;;
19095;SDS011;9680;52.520;13.332;2023-06-26T07:56:34;11.32;;;6.55;;
19095;SDS011;9680;52.520;13.332;2023-06-26T07:59:19;8.50;;;6.10;;
19095;SDS011;9680;52.520;13.332;2023-06-26T08:01:46;9.40;;;6.18;;
19095;SDS011;9680;52.520;13.332;2023-06-26T08:04:12;8.75;;;6.32;;
19095;SDS011;9680;52.520;13.332;2023-06-26T08:06:39;9.90;;;5.35;;
19095;SDS011;9680;52.520;13.332;2023-06-26T08:09:06;10.88;;;5.60;;
19095;SDS011;9680;52.520;13.332;2023-06-26T08:11:33;8.75;;;5.75;;
19095;SDS011;9680;52.520;13.332;2023-06-26T08:14:00;10.60;;;5.25;;
19095;SDS011;9680;52.520;13.332;2023-06-26T08:16:28;7.90;;;4.97;;
19095;SDS011;9680;52.520;13.332;2023-06-26T08:18:55;10.05;;;5.43;;
19095;SDS011;9680;52.520;13.332;2023-06-26T08:21:21;8.43;;;5.03;;
19095;SDS011;9680;52.520;13.332;2023-06-26T08:23:48;6.70;;;4.85;;
19095;SDS011;9680;52.520;13.332;2023-06-26T08:26:16;9.15;;;4.45;;
19095;SDS011;9680;52.520;13.332;2023-06-26T08:28:43;11.77;;;4.95;;
19095;SDS011;9680;52.520;13.332;2023-06-26T08:31:10;8.48;;;4.90;;
19095;SDS011;9680;52.520;13.332;2023-06-26T08:33:38;12.40;;;5.15;;
19095;SDS011;9680;52.520;13.332;2023-06-26T08:36:05;11.50;;;4.53;;
19095;SDS011;9680;52.520;13.332;2023-06-26T08:38:32;7.05;;;4.55;;
19095;SDS011;9680;52.520;13.332;2023-06-26T08:40:59;6.60;;;4.20;;
19095;SDS011;9680;52.520;13.332;2023-06-26T08:43:26;6.32;;;4.18;;
19095;SDS011;9680;52.520;13.332;2023-06-26T08:45:53;6.63;;;4.10;;
19095;SDS011;9680;52.520;13.332;2023-06-26T08:48:21;8.15;;;4.50;;
19095;SDS011;9680;52.520;13.332;2023-06-26T08:50:49;6.68;;;4.90;;
19095;SDS011;9680;52.520;13.332;2023-06-26T08:53:21;12.07;;;4.70;;
19095;SDS011;9680;52.520;13.332;2023-06-26T08:55:57;6.57;;;4.10;;
19095;SDS011;9680;52.520;13.332;2023-06-26T08:58:24;7.03;;;4.28;;
19095;SDS011;9680;52.520;13.332;2023-06-26T09:00:51;6.65;;;4.43;;
19095;SDS011;9680;52.520;13.332;2023-06-26T09:03:18;10.70;;;4.65;;
19095;SDS011;9680;52.520;13.332;2023-06-26T09:05:45;15.70;;;4.65;;
19095;SDS011;9680;52.520;13.332;2023-06-26T09:08:13;7.10;;;4.15;;
19095;SDS011;9680;52.520;13.332;2023-06-26T09:10:40;7.40;;;3.90;;
19095;SDS011;9680;52.520;13.332;2023-06-26T09:13:07;10.15;;;4.30;;
19095;SDS011;9680;52.520;13.332;2023-06-26T09:15:37;10.70;;;4.32;;
19095;SDS011;9680;52.520;13.332;2023-06-26T09:18:05;9.82;;;4.60;;
19095;SDS011;9680;52.520;13.332;2023-06-26T09:20:33;9.65;;;4.15;;
19095;SDS011;9680;52.520;13.332;2023-06-26T09:22:59;7.28;;;4.28;;
19095;SDS011;9680;52.520;13.332;2023-06-26T09:25:28;6.75;;;4.20;;
19095;SDS011;9680;52.520;13.332;2023-06-26T09:27:55;6.78;;;4.57;;
19095;SDS011;9680;52.520;13.332;2023-06-26T09:30:23;8.25;;;4.40;;
19095;SDS011;9680;52.520;13.332;2023-06-26T09:32:50;6.30;;;4.25;;
19095;SDS011;9680;52.520;13.332;2023-06-26T09:35:19;6.07;;;4.10;;
19095;SDS011;9680;52.520;13.332;2023-06-26T09:37:46;5.45;;;3.47;;
19095;SDS011;9680;52.520;13.332;2023-06-26T09:40:13;6.05;;;3.67;;
19095;SDS011;9680;52.520;13.332;2023-06-26T09:42:41;7.03;;;4.22;;
19095;SDS011;9680;52.520;13.332;2023-06-26T09:45:12;5.05;;;3.92;;
19095;SDS011;9680;52.520;13.332;2023-06-26T09:47:44;7.90;;;5.05;;
19095;SDS011;9680;52.520;13.332;2023-06-26T09:50:20;4.70;;;3.65;;
19095;SDS011;9680;52.520;13.332;2023-06-26T09:52:53;5.00;;;3.42;;
19095;SDS011;9680;52.520;13.332;2023-06-26T09:55:19;7.07;;;3.67;;
19095;SDS011;9680;52.520;13.332;2023-06-26T09:57:49;7.78;;;4.10;;
19095;SDS011;9680;52.520;13.332;2023-06-26T10:00:16;7.60;;;4.65;;
19095;SDS011;9680;52.520;13.332;2023-06-26T10:02:45;7.38;;;4.15;;
19095;SDS011;9680;52.520;13.332;2023-06-26T10:05:12;6.32;;;4.18;;
19095;SDS011;9680;52.520;13.332;2023-06-26T10:07:39;5.93;;;4.20;;
19095;SDS011;9680;52.520;13.332;2023-06-26T10:10:07;5.20;;;3.97;;
19095;SDS011;9680;52.520;13.332;2023-06-26T10:12:36;5.85;;;3.78;;
19095;SDS011;9680;52.520;13.332;2023-06-26T10:15:05;6.32;;;3.83;;
19095;SDS011;9680;52.520;13.332;2023-06-26T10:17:37;7.00;;;4.22;;
19095;SDS011;9680;52.520;13.332;2023-06-26T10:20:06;6.40;;;3.90;;
19095;SDS011;9680;52.520;13.332;2023-06-26T10:22:36;8.38;;;3.72;;
19095;SDS011;9680;52.520;13.332;2023-06-26T10:25:07;6.97;;;4.05;;
19095;SDS011;9680;52.520;13.332;2023-06-26T10:27:38;6.82;;;4.25;;
19095;SDS011;9680;52.520;13.332;2023-06-26T10:30:16;6.43;;;4.35;;
19095;SDS011;9680;52.520;13.332;2023-06-26T10:32:47;5.93;;;4.25;;
19095;SDS011;9680;52.520;13.332;2023-06-26T10:35:14;7.45;;;4.30;;
19095;SDS011;9680;52.520;13.332;2023-06-26T10:37:42;6.60;;;4.60;;
19095;SDS011;9680;52.520;13.332;2023-06-26T10:40:10;7.13;;;4.13;;
19095;SDS011;9680;52.520;13.332;2023-06-26T10:42:38;6.50;;;4.18;;
19095;SDS011;9680;52.520;13.332;2023-06-26T10:45:08;5.30;;;3.90;;
19095;SDS011;9680;52.520;13.332;2023-06-26T10:47:38;5.65;;;4.05;;
19095;SDS011;9680;52.520;13.332;2023-06-26T10:50:16;7.88;;;4.18;;
19095;SDS011;9680;52.520;13.332;2023-06-26T10:52:44;8.38;;;4.32;;
19095;SDS011;9680;52.520;13.332;2023-06-26T10:55:11;9.32;;;4.30;;
19095;SDS011;9680;52.520;13.332;2023-06-26T10:57:40;5.80;;;4.50;;
19095;SDS011;9680;52.520;13.332;2023-06-26T11:00:14;8.00;;;4.47;;
19095;SDS011;9680;52.520;13.332;2023-06-26T11:02:49;8.10;;;4.38;;
19095;SDS011;9680;52.520;13.332;2023-06-26T11:05:23;5.57;;;4.20;;
19095;SDS011;9680;52.520;13.332;2023-06-26T11:08:04;5.78;;;4.30;;
19095;SDS011;9680;52.520;13.332;2023-06-26T11:10:48;5.00;;;3.95;;
19095;SDS011;9680;52.520;13.332;2023-06-26T11:13:17;11.27;;;4.20;;
19095;SDS011;9680;52.520;13.332;2023-06-26T11:15:45;5.68;;;4.13;;
19095;SDS011;9680;52.520;13.332;2023-06-26T11:18:13;6.22;;;3.97;;
19095;SDS011;9680;52.520;13.332;2023-06-26T11:20:40;7.40;;;4.22;;
19095;SDS011;9680;52.520;13.332;2023-06-26T11:23:07;5.45;;;4.05;;
19095;SDS011;9680;52.520;13.332;2023-06-26T11:25:35;9.48;;;4.28;;
19095;SDS011;9680;52.520;13.332;2023-06-26T11:28:02;21.45;;;4.53;;
19095;SDS011;9680;52.520;13.332;2023-06-26T11:30:30;12.48;;;4.43;;
19095;SDS011;9680;52.520;13.332;2023-06-26T11:33:02;12.88;;;4.00;;
19095;SDS011;9680;52.520;13.332;2023-06-26T11:35:31;6.22;;;4.43;;
19095;SDS011;9680;52.520;13.332;2023-06-26T11:37:59;6.50;;;4.40;;
19095;SDS011;9680;52.520;13.332;2023-06-26T11:40:30;7.40;;;4.40;;
19095;SDS011;9680;52.520;13.332;2023-06-26T11:42:57;8.88;;;4.30;;
19095;SDS011;9680;52.520;13.332;2023-06-26T11:45:25;6.13;;;4.07;;
19095;SDS011;9680;52.520;13.332;2023-06-26T11:47:54;7.88;;;4.50;;
19095;SDS011;9680;52.520;13.332;2023-06-26T11:50:21;6.65;;;4.10;;
19095;SDS011;9680;52.520;13.332;2023-06-26T11:52:54;7.22;;;4.70;;
19095;SDS011;9680;52.520;13.332;2023-06-26T11:55:22;9.75;;;4.22;;
19095;SDS011;9680;52.520;13.332;2023-06-26T11:57:49;6.47;;;4.35;;
19095;SDS011;9680;52.520;13.332;2023-06-26T12:00:16;5.00;;;3.80;;
19095;SDS011;9680;52.520;13.332;2023-06-26T12:02:43;6.10;;;4.20;;
19095;SDS011;9680;52.520;13.332;2023-06-26T12:05:11;6.25;;;4.20;;
19095;SDS011;9680;52.520;13.332;2023-06-26T12:07:38;6.90;;;4.40;;
19095;SDS011;9680;52.520;13.332;2023-06-26T12:10:12;7.47;;;4.40;;
19095;SDS011;9680;52.520;13.332;2023-06-26T12:12:41;6.78;;;4.22;;
19095;SDS011;9680;52.520;13.332;2023-06-26T12:15:10;5.72;;;4.20;;
19095;SDS011;9680;52.520;13.332;2023-06-26T12:17:39;6.70;;;4.55;;
19095;SDS011;9680;52.520;13.332;2023-06-26T12:20:16;6.63;;;4.50;;
19095;SDS011;9680;52.520;13.332;2023-06-26T12:22:45;5.80;;;4.40;;
19095;SDS011;9680;52.520;13.332;2023-06-26T12:25:14;5.57;;;4.40;;
19095;SDS011;9680;52.520;13.332;2023-06-26T12:27:44;6.57;;;4.47;;
19095;SDS011;9680;52.520;13.332;2023-06-26T12:30:12;7.05;;;4.30;;
19095;SDS011;9680;52.520;13.332;2023-06-26T12:32:39;9.55;;;4.88;;
19095;SDS011;9680;52.520;13.332;2023-06-26T12:35:06;5.93;;;4.45;;
19095;SDS011;9680;52.520;13.332;2023-06-26T12:37:38;6.75;;;4.57;;
19095;SDS011;9680;52.520;13.332;2023-06-26T12:40:19;8.20;;;4.97;;
19095;SDS011;9680;52.520;13.332;2023-06-26T12:42:51;6.95;;;4.93;;
19095;SDS011;9680;52.520;13.332;2023-06-26T12:45:21;9.27;;;5.07;;
19095;SDS011;9680;52.520;13.332;2023-06-26T12:47:48;7.22;;;5.20;;
19095;SDS011;9680;52.520;13.332;2023-06-26T12:50:21;9.55;;;4.93;;
19095;SDS011;9680;52.520;13.332;2023-06-26T12:52:48;7.68;;;5.15;;
19095;SDS011;9680;52.520;13.332;2023-06-26T12:55:15;6.35;;;4.80;;
19095;SDS011;9680;52.520;13.332;2023-06-26T13:00:32;6.63;;;5.03;;
19095;SDS011;9680;52.520;13.332;2023-06-26T13:03:02;8.35;;;5.13;;
19095;SDS011;9680;52.520;13.332;2023-06-26T13:05:29;9.20;;;5.93;;
19095;SDS011;9680;52.520;13.332;2023-06-26T13:07:56;10.55;;;5.70;;
19095;SDS011;9680;52.520;13.332;2023-06-26T13:10:23;6.78;;;5.22;;
19095;SDS011;9680;52.520;13.332;2023-06-26T13:12:54;7.35;;;5.45;;
19095;SDS011;9680;52.520;13.332;2023-06-26T13:15:22;9.13;;;5.30;;
19095;SDS011;9680;52.520;13.332;2023-06-26T13:17:52;7.47;;;5.57;;
19095;SDS011;9680;52.520;13.332;2023-06-26T13:20:19;11.00;;;5.45;;
19095;SDS011;9680;52.520;13.332;2023-06-26T13:22:46;8.00;;;5.40;;
19095;SDS011;9680;52.520;13.332;2023-06-26T13:25:15;8.57;;;5.68;;
19095;SDS011;9680;52.520;13.332;2023-06-26T13:27:42;7.88;;;5.72;;
19095;SDS011;9680;52.520;13.332;2023-06-26T13:30:09;9.18;;;6.15;;
19095;SDS011;9680;52.520;13.332;2023-06-26T13:32:38;8.07;;;5.70;;
19095;SDS011;9680;52.520;13.332;2023-06-26T13:35:05;7.18;;;5.32;;
19095;SDS011;9680;52.520;13.332;2023-06-26T13:37:32;8.85;;;5.97;;
19095;SDS011;9680;52.520;13.332;2023-06-26T13:39:59;7.50;;;5.30;;
19095;SDS011;9680;52.520;13.332;2023-06-26T13:42:27;8.15;;;5.85;;
19095;SDS011;9680;52.520;13.332;2023-06-26T13:44:54;7.43;;;5.50;;
19095;SDS011;9680;52.520;13.332;2023-06-26T13:47:21;10.10;;;5.80;;
19095;SDS011;9680;52.520;13.332;2023-06-26T13:49:49;7.03;;;5.45;;
19095;SDS011;9680;52.520;13.332;2023-06-26T13:52:16;8.48;;;6.07;;
19095;SDS011;9680;52.520;13.332;2023-06-26T13:54:43;7.97;;;5.20;;
19095;SDS011;9680;52.520;13.332;2023-06-26T13:57:10;7.53;;;5.78;;
19095;SDS011;9680;52.520;13.332;2023-06-26T13:59:37;8.30;;;5.55;;
19095;SDS011;9680;52.520;13.332;2023-06-26T14:02:05;11.52;;;5.40;;
19095;SDS011;9680;52.520;13.332;2023-06-26T14:04:33;9.85;;;6.20;;
19095;SDS011;9680;52.520;13.332;2023-06-26T14:07:01;8.30;;;5.60;;
19095;SDS011;9680;52.520;13.332;2023-06-26T14:09:28;7.82;;;5.65;;
19095;SDS011;9680;52.520;13.332;2023-06-26T14:11:54;9.10;;;5.90;;
19095;SDS011;9680;52.520;13.332;2023-06-26T14:14:21;11.30;;;5.50;;
19095;SDS011;9680;52.520;13.332;2023-06-26T14:16:48;7.57;;;5.10;;
19095;SDS011;9680;52.520;13.332;2023-06-26T14:19:16;16.15;;;5.68;;
19095;SDS011;9680;52.520;13.332;2023-06-26T14:21:43;16.08;;;6.50;;
19095;SDS011;9680;52.520;13.332;2023-06-26T14:24:11;18.73;;;6.00;;
19095;SDS011;9680;52.520;13.332;2023-06-26T14:26:38;14.48;;;5.50;;
19095;SDS011;9680;52.520;13.332;2023-06-26T14:29:05;15.88;;;4.32;;
19095;SDS011;9680;52.520;13.332;2023-06-26T14:31:41;17.50;;;4.63;;
19095;SDS011;9680;52.520;13.332;2023-06-26T14:37:10;9.27;;;4.68;;
19095;SDS011;9680;52.520;13.332;2023-06-26T14:39:38;9.45;;;4.53;;
19095;SDS011;9680;52.520;13.332;2023-06-26T14:43:00;10.85;;;4.70;;
19095;SDS011;9680;52.520;13.332;2023-06-26T14:46:00;7.68;;;4.72;;
19095;SDS011;9680;52.520;13.332;2023-06-26T14:48:30;9.23;;;5.13;;